JBU69 KBOS-KFLL
Flight info
| Callsign | JBU69 |
|---|---|
| Flight time | N/A |
| Altitude | 34000 |
| Route | SSOXS7 SSOXS Q167 RIFLE HEADI Q97 KALDA Q161 CHIEZ Y291 MAJIK CUUDA3 |
| Aircraft | A21N/M-SDE2E3FGHIRWXY/LB1 |
Departure
| Time | 2026-05-05 17:49 |
|---|---|
| Airport | Boston Logan International Airport (KBOS) |
Arrival
| Time | N/A |
|---|---|
| Airport | Fort Lauderdale Hollywood International Airport (KFLL) |
| Time | Latitude | Longitude | Altitude | Speed | Heading |
|---|---|---|---|---|---|
| 2026-05-05 16:49 | 42.36465 | -71.01461 | 21 ft | 0 kts | 342° |
| 2026-05-05 17:39 | 42.36458 | -71.01458 | 22 ft | 2 kts | 345° |
| 2026-05-05 17:39 | 42.36443 | -71.01457 | 22 ft | 2 kts | 7° |
| 2026-05-05 17:39 | 42.36428 | -71.01460 | 22 ft | 2 kts | 4° |
| 2026-05-05 17:39 | 42.36413 | -71.01457 | 22 ft | 2 kts | 336° |
| 2026-05-05 17:40 | 42.36399 | -71.01450 | 22 ft | 2 kts | 342° |
| 2026-05-05 17:40 | 42.36385 | -71.01443 | 22 ft | 2 kts | 338° |
| 2026-05-05 17:40 | 42.36371 | -71.01435 | 22 ft | 2 kts | 338° |
| 2026-05-05 17:40 | 42.36356 | -71.01428 | 22 ft | 2 kts | 350° |
| 2026-05-05 17:41 | 42.36342 | -71.01427 | 22 ft | 2 kts | 9° |
| 2026-05-05 17:41 | 42.36333 | -71.01430 | 22 ft | 0 kts | 18° |
| 2026-05-05 17:43 | 42.36353 | -71.01421 | 22 ft | 6 kts | 19° |
| 2026-05-05 17:43 | 42.36427 | -71.01385 | 22 ft | 16 kts | 20° |
| 2026-05-05 17:43 | 42.36538 | -71.01318 | 21 ft | 17 kts | 27° |
| 2026-05-05 17:43 | 42.36660 | -71.01260 | 19 ft | 19 kts | 14° |
| 2026-05-05 17:44 | 42.36774 | -71.01254 | 19 ft | 15 kts | 327° |
| 2026-05-05 17:44 | 42.36854 | -71.01255 | 19 ft | 12 kts | 36° |
| 2026-05-05 17:44 | 42.36924 | -71.01178 | 19 ft | 13 kts | 40° |
| 2026-05-05 17:44 | 42.37012 | -71.01091 | 19 ft | 18 kts | 26° |
| 2026-05-05 17:45 | 42.37152 | -71.00999 | 16 ft | 24 kts | 26° |
| 2026-05-05 17:45 | 42.37296 | -71.00907 | 16 ft | 21 kts | 24° |
| 2026-05-05 17:45 | 42.37432 | -71.00842 | 16 ft | 20 kts | 18° |
| 2026-05-05 17:45 | 42.37553 | -71.00782 | 16 ft | 17 kts | 20° |
| 2026-05-05 17:46 | 42.37663 | -71.00730 | 16 ft | 16 kts | 19° |
| 2026-05-05 17:46 | 42.37772 | -71.00674 | 16 ft | 16 kts | 19° |
| 2026-05-05 17:46 | 42.37839 | -71.00614 | 16 ft | 8 kts | 72° |
| 2026-05-05 17:46 | 42.37835 | -71.00570 | 16 ft | 2 kts | 111° |
| 2026-05-05 17:47 | 42.37835 | -71.00568 | 16 ft | 0 kts | 111° |
| 2026-05-05 17:47 | 42.37834 | -71.00565 | 16 ft | 0 kts | 111° |
| 2026-05-05 17:48 | 42.37819 | -71.00511 | 16 ft | 11 kts | 115° |
| 2026-05-05 17:48 | 42.37719 | -71.00505 | 16 ft | 32 kts | 200° |
| 2026-05-05 17:48 | 42.37257 | -71.00727 | 16 ft | 105 kts | 199° |
| 2026-05-05 17:48 | 42.36389 | -71.01148 | 74 ft | 154 kts | 199° |
| 2026-05-05 17:49 | 42.35379 | -71.01666 | 626 ft | 157 kts | 199° |
| 2026-05-05 17:49 | 42.34310 | -71.01844 | 1293 ft | 159 kts | 166° |
| 2026-05-05 17:49 | 42.33406 | -71.00998 | 1910 ft | 168 kts | 137° |
| 2026-05-05 17:49 | 42.32660 | -70.99715 | 2291 ft | 178 kts | 129° |
| 2026-05-05 17:50 | 42.31905 | -70.98312 | 2559 ft | 191 kts | 129° |
| 2026-05-05 17:50 | 42.31197 | -70.96717 | 2813 ft | 207 kts | 112° |
| 2026-05-05 17:50 | 42.31159 | -70.94720 | 3028 ft | 229 kts | 83° |
| 2026-05-05 17:50 | 42.31505 | -70.92515 | 3232 ft | 249 kts | 81° |
| 2026-05-05 17:51 | 42.31890 | -70.90159 | 3476 ft | 267 kts | 82° |
| 2026-05-05 17:51 | 42.32285 | -70.87613 | 3788 ft | 285 kts | 82° |
| 2026-05-05 17:51 | 42.32678 | -70.84911 | 4240 ft | 298 kts | 83° |
| 2026-05-05 17:51 | 42.33058 | -70.82153 | 4915 ft | 301 kts | 85° |
| 2026-05-05 17:52 | 42.33035 | -70.79373 | 5573 ft | 295 kts | 108° |
| 2026-05-05 17:52 | 42.32352 | -70.76812 | 6275 ft | 290 kts | 121° |
| 2026-05-05 17:52 | 42.31474 | -70.74348 | 6943 ft | 293 kts | 123° |
| 2026-05-05 17:52 | 42.30568 | -70.71888 | 7621 ft | 297 kts | 121° |
| 2026-05-05 17:53 | 42.29578 | -70.69427 | 8238 ft | 297 kts | 133° |
| 2026-05-05 17:53 | 42.28044 | -70.67696 | 8886 ft | 282 kts | 161° |
| 2026-05-05 17:53 | 42.26246 | -70.66854 | 9573 ft | 278 kts | 169° |
| 2026-05-05 17:53 | 42.24373 | -70.66065 | 10143 ft | 284 kts | 168° |
| 2026-05-05 17:54 | 42.22462 | -70.65214 | 10476 ft | 298 kts | 167° |
| 2026-05-05 17:54 | 42.20425 | -70.64294 | 10772 ft | 313 kts | 167° |
| 2026-05-05 17:54 | 42.18316 | -70.63332 | 11034 ft | 327 kts | 167° |
| 2026-05-05 17:54 | 42.16125 | -70.62357 | 11321 ft | 338 kts | 170° |
| 2026-05-05 17:55 | 42.13775 | -70.61949 | 11600 ft | 339 kts | 187° |
| 2026-05-05 17:55 | 42.11476 | -70.62406 | 12164 ft | 333 kts | 200° |
| 2026-05-05 17:55 | 42.09262 | -70.63353 | 12737 ft | 334 kts | 203° |
| 2026-05-05 17:55 | 42.07036 | -70.64351 | 13254 ft | 339 kts | 203° |
| 2026-05-05 17:56 | 42.04774 | -70.65363 | 13781 ft | 342 kts | 203° |
| 2026-05-05 17:56 | 42.02526 | -70.66372 | 14332 ft | 345 kts | 202° |
| 2026-05-05 17:56 | 42.00205 | -70.67398 | 14826 ft | 350 kts | 202° |
| 2026-05-05 17:56 | 41.97893 | -70.68394 | 15412 ft | 352 kts | 202° |
| 2026-05-05 17:57 | 41.95570 | -70.69425 | 15993 ft | 353 kts | 201° |
| 2026-05-05 17:57 | 41.93225 | -70.70452 | 16517 ft | 355 kts | 201° |
| 2026-05-05 17:57 | 41.90880 | -70.71475 | 16989 ft | 358 kts | 201° |
| 2026-05-05 17:57 | 41.88503 | -70.72508 | 17452 ft | 361 kts | 201° |
| 2026-05-05 17:58 | 41.86085 | -70.73593 | 17918 ft | 362 kts | 202° |
| 2026-05-05 17:58 | 41.83736 | -70.74852 | 18355 ft | 365 kts | 206° |
| 2026-05-05 17:58 | 41.81467 | -70.76315 | 18813 ft | 365 kts | 210° |
| 2026-05-05 17:58 | 41.79220 | -70.77977 | 19238 ft | 367 kts | 211° |
| 2026-05-05 17:59 | 41.76989 | -70.79654 | 19624 ft | 369 kts | 211° |
| 2026-05-05 17:59 | 41.74760 | -70.81330 | 20004 ft | 372 kts | 211° |
| 2026-05-05 17:59 | 41.72498 | -70.83024 | 20405 ft | 374 kts | 211° |
| 2026-05-05 17:59 | 41.70222 | -70.84729 | 20836 ft | 375 kts | 211° |
| 2026-05-05 18:00 | 41.67930 | -70.86448 | 21252 ft | 377 kts | 210° |
| 2026-05-05 18:00 | 41.65630 | -70.88170 | 21664 ft | 379 kts | 210° |
| 2026-05-05 18:00 | 41.63340 | -70.89884 | 22051 ft | 381 kts | 211° |
| 2026-05-05 18:00 | 41.61023 | -70.91626 | 22399 ft | 383 kts | 211° |
| 2026-05-05 18:01 | 41.58699 | -70.93370 | 22718 ft | 385 kts | 210° |
| 2026-05-05 18:01 | 41.56422 | -70.95278 | 23067 ft | 387 kts | 217° |
| 2026-05-05 18:01 | 41.54390 | -70.97638 | 23413 ft | 389 kts | 225° |
| 2026-05-05 18:01 | 41.52647 | -71.00394 | 23750 ft | 391 kts | 234° |
| 2026-05-05 18:02 | 41.51105 | -71.03386 | 24078 ft | 394 kts | 236° |
| 2026-05-05 18:02 | 41.49574 | -71.06449 | 24411 ft | 396 kts | 236° |
| 2026-05-05 18:02 | 41.48064 | -71.09480 | 24726 ft | 398 kts | 236° |
| 2026-05-05 18:02 | 41.46521 | -71.12575 | 25060 ft | 399 kts | 236° |
| 2026-05-05 18:03 | 41.44974 | -71.15665 | 25385 ft | 401 kts | 236° |
| 2026-05-05 18:03 | 41.43428 | -71.18746 | 25682 ft | 402 kts | 236° |
| 2026-05-05 18:03 | 41.41862 | -71.21863 | 25985 ft | 403 kts | 236° |
| 2026-05-05 18:03 | 41.40293 | -71.24976 | 26238 ft | 405 kts | 237° |
| 2026-05-05 18:04 | 41.38718 | -71.28103 | 26490 ft | 407 kts | 237° |
| 2026-05-05 18:04 | 41.37138 | -71.31240 | 26740 ft | 409 kts | 237° |
| 2026-05-05 18:04 | 41.35560 | -71.34370 | 27020 ft | 410 kts | 237° |
| 2026-05-05 18:04 | 41.33971 | -71.37521 | 27276 ft | 412 kts | 237° |
| 2026-05-05 18:05 | 41.32373 | -71.40691 | 27512 ft | 413 kts | 237° |
| 2026-05-05 18:05 | 41.30767 | -71.43869 | 27760 ft | 415 kts | 237° |
| 2026-05-05 18:05 | 41.29142 | -71.47080 | 27984 ft | 417 kts | 237° |
| 2026-05-05 18:05 | 41.27500 | -71.50320 | 28221 ft | 418 kts | 237° |
| 2026-05-05 18:06 | 41.25800 | -71.53503 | 28454 ft | 420 kts | 235° |
| 2026-05-05 18:06 | 41.24623 | -71.55589 | 28622 ft | 421 kts | 234° |
| 2026-05-05 18:06 | 41.22245 | -71.59737 | 28905 ft | 424 kts | 234° |
| 2026-05-05 18:06 | 41.20468 | -71.62829 | 29153 ft | 424 kts | 234° |
| 2026-05-05 18:07 | 41.18687 | -71.65925 | 29462 ft | 424 kts | 234° |
| 2026-05-05 18:07 | 41.16885 | -71.69055 | 29762 ft | 424 kts | 234° |
| 2026-05-05 18:07 | 41.15122 | -71.72124 | 30049 ft | 423 kts | 234° |
| 2026-05-05 18:07 | 41.13339 | -71.75224 | 30331 ft | 423 kts | 234° |
| 2026-05-05 18:08 | 41.11548 | -71.78338 | 30640 ft | 423 kts | 234° |
| 2026-05-05 18:08 | 41.09775 | -71.81414 | 30946 ft | 422 kts | 234° |
| 2026-05-05 18:08 | 41.08008 | -71.84486 | 31249 ft | 422 kts | 234° |
| 2026-05-05 18:08 | 41.06217 | -71.87593 | 31537 ft | 422 kts | 234° |
| 2026-05-05 18:09 | 41.04453 | -71.90652 | 31787 ft | 423 kts | 234° |
| 2026-05-05 18:09 | 41.02656 | -71.93765 | 32069 ft | 423 kts | 234° |
| 2026-05-05 18:09 | 41.00883 | -71.96831 | 32338 ft | 423 kts | 234° |
| 2026-05-05 18:09 | 40.99092 | -71.99929 | 32538 ft | 425 kts | 234° |
| 2026-05-05 18:10 | 40.97287 | -72.03045 | 32741 ft | 426 kts | 234° |
| 2026-05-05 18:10 | 40.95503 | -72.06123 | 32960 ft | 427 kts | 234° |
| 2026-05-05 18:10 | 40.93676 | -72.09271 | 33176 ft | 428 kts | 234° |
| 2026-05-05 18:10 | 40.91866 | -72.12386 | 33382 ft | 429 kts | 234° |
| 2026-05-05 18:11 | 40.90069 | -72.15476 | 33584 ft | 430 kts | 234° |
| 2026-05-05 18:11 | 40.88239 | -72.18619 | 33765 ft | 432 kts | 234° |
| 2026-05-05 18:11 | 40.86390 | -72.21793 | 33931 ft | 433 kts | 234° |
| 2026-05-05 18:12 | 40.82690 | -72.28136 | 33948 ft | 434 kts | 234° |
| 2026-05-05 18:12 | 40.79024 | -72.34403 | 33955 ft | 433 kts | 234° |
| 2026-05-05 18:13 | 40.75346 | -72.40678 | 33950 ft | 432 kts | 234° |
| 2026-05-05 18:13 | 40.71661 | -72.46949 | 33943 ft | 433 kts | 234° |
| 2026-05-05 18:14 | 40.67982 | -72.53200 | 33951 ft | 434 kts | 235° |
| 2026-05-05 18:14 | 40.64284 | -72.59475 | 33950 ft | 434 kts | 235° |
| 2026-05-05 18:15 | 40.60598 | -72.65722 | 33949 ft | 434 kts | 234° |
| 2026-05-05 18:15 | 40.56873 | -72.72011 | 33956 ft | 434 kts | 234° |
| 2026-05-05 18:16 | 40.53176 | -72.78245 | 33953 ft | 435 kts | 234° |
| 2026-05-05 18:16 | 40.49426 | -72.84545 | 33945 ft | 435 kts | 234° |
| 2026-05-05 18:17 | 40.45707 | -72.90778 | 33950 ft | 436 kts | 234° |
| 2026-05-05 18:17 | 40.41939 | -72.97092 | 33945 ft | 437 kts | 234° |
| 2026-05-05 18:18 | 40.38218 | -73.03321 | 33944 ft | 436 kts | 234° |
| 2026-05-05 18:18 | 40.34461 | -73.09601 | 33945 ft | 436 kts | 234° |
| 2026-05-05 18:19 | 40.30699 | -73.15874 | 33940 ft | 437 kts | 234° |
| 2026-05-05 18:19 | 40.26923 | -73.22159 | 33941 ft | 438 kts | 235° |
| 2026-05-05 18:20 | 40.23167 | -73.28387 | 33942 ft | 438 kts | 235° |
| 2026-05-05 18:20 | 40.19363 | -73.34708 | 33943 ft | 438 kts | 235° |
| 2026-05-05 18:21 | 40.15589 | -73.40955 | 33943 ft | 438 kts | 235° |
| 2026-05-05 18:21 | 40.11778 | -73.47237 | 33938 ft | 439 kts | 235° |
| 2026-05-05 18:22 | 40.07976 | -73.53490 | 33939 ft | 439 kts | 235° |
| 2026-05-05 18:22 | 40.04194 | -73.59700 | 33942 ft | 438 kts | 235° |
| 2026-05-05 18:23 | 40.00236 | -73.65833 | 33939 ft | 442 kts | 229° |
| 2026-05-05 18:23 | 39.95611 | -73.71168 | 33955 ft | 446 kts | 220° |
| 2026-05-05 18:24 | 39.90310 | -73.75510 | 33950 ft | 452 kts | 211° |
| 2026-05-05 18:24 | 39.84483 | -73.78856 | 33955 ft | 455 kts | 206° |
| 2026-05-05 18:25 | 39.78540 | -73.81999 | 33954 ft | 455 kts | 206° |
| 2026-05-05 18:25 | 39.72578 | -73.85159 | 33962 ft | 456 kts | 206° |
| 2026-05-05 18:26 | 39.66658 | -73.88300 | 33961 ft | 456 kts | 206° |
| 2026-05-05 18:26 | 39.60749 | -73.91433 | 33969 ft | 455 kts | 206° |
| 2026-05-05 18:27 | 39.54884 | -73.94537 | 33978 ft | 458 kts | 206° |
| 2026-05-05 18:27 | 39.48942 | -73.97678 | 33983 ft | 458 kts | 207° |
| 2026-05-05 18:28 | 39.40460 | -74.03421 | 33991 ft | 453 kts | 217° |
| 2026-05-05 18:28 | 39.35348 | -74.08170 | 33992 ft | 449 kts | 223° |
| 2026-05-05 18:29 | 39.30580 | -74.13365 | 33984 ft | 448 kts | 225° |
| 2026-05-05 18:29 | 39.25807 | -74.18581 | 33984 ft | 449 kts | 225° |
| 2026-05-05 18:30 | 39.21003 | -74.23811 | 33987 ft | 450 kts | 224° |
| 2026-05-05 18:30 | 39.16193 | -74.29031 | 33992 ft | 450 kts | 224° |
| 2026-05-05 18:31 | 39.11386 | -74.34233 | 33988 ft | 451 kts | 224° |
| 2026-05-05 18:31 | 39.06579 | -74.39436 | 33990 ft | 450 kts | 224° |
| 2026-05-05 18:32 | 39.01767 | -74.44611 | 33983 ft | 450 kts | 224° |
| 2026-05-05 18:32 | 38.96992 | -74.49751 | 33977 ft | 450 kts | 224° |
| 2026-05-05 18:33 | 38.92265 | -74.55012 | 33981 ft | 449 kts | 227° |
| 2026-05-05 18:33 | 38.87645 | -74.60437 | 33976 ft | 449 kts | 227° |
| 2026-05-05 18:34 | 38.83017 | -74.65848 | 33982 ft | 449 kts | 226° |
| 2026-05-05 18:34 | 38.78354 | -74.71289 | 33980 ft | 450 kts | 226° |
| 2026-05-05 18:35 | 38.73669 | -74.76575 | 33981 ft | 452 kts | 223° |
| 2026-05-05 18:35 | 38.68782 | -74.81675 | 33980 ft | 452 kts | 223° |
| 2026-05-05 18:36 | 38.63903 | -74.86754 | 33984 ft | 452 kts | 223° |
| 2026-05-05 18:36 | 38.58986 | -74.91868 | 33990 ft | 453 kts | 223° |
| 2026-05-05 18:37 | 38.54124 | -74.96918 | 33995 ft | 453 kts | 224° |
| 2026-05-05 18:37 | 38.49348 | -75.02165 | 33991 ft | 452 kts | 226° |
| 2026-05-05 18:38 | 38.44437 | -75.07268 | 33993 ft | 455 kts | 221° |
| 2026-05-05 18:38 | 38.39358 | -75.12107 | 34002 ft | 456 kts | 221° |
| 2026-05-05 18:39 | 38.34233 | -75.16970 | 34007 ft | 456 kts | 221° |
| 2026-05-05 18:39 | 38.29122 | -75.21813 | 34007 ft | 457 kts | 222° |
| 2026-05-05 18:40 | 38.24029 | -75.26638 | 34011 ft | 457 kts | 222° |
| 2026-05-05 18:40 | 38.18917 | -75.31473 | 34014 ft | 457 kts | 222° |
| 2026-05-05 18:41 | 38.13818 | -75.36276 | 34009 ft | 458 kts | 222° |
| 2026-05-05 18:41 | 38.08646 | -75.41142 | 34015 ft | 458 kts | 222° |
| 2026-05-05 18:42 | 38.03534 | -75.45890 | 34008 ft | 458 kts | 220° |
| 2026-05-05 18:42 | 37.98228 | -75.50493 | 34015 ft | 460 kts | 220° |
| 2026-05-05 18:43 | 37.92947 | -75.55055 | 34018 ft | 458 kts | 220° |
| 2026-05-05 18:43 | 37.87531 | -75.59411 | 34012 ft | 463 kts | 215° |
| 2026-05-05 18:44 | 37.81693 | -75.63017 | 34012 ft | 468 kts | 208° |
| 2026-05-05 18:44 | 37.75520 | -75.65743 | 34025 ft | 472 kts | 200° |
| 2026-05-05 18:45 | 37.69175 | -75.67958 | 34019 ft | 472 kts | 200° |
| 2026-05-05 18:45 | 37.62824 | -75.70172 | 34023 ft | 473 kts | 200° |
| 2026-05-05 18:46 | 37.56436 | -75.72401 | 34021 ft | 472 kts | 200° |
| 2026-05-05 18:46 | 37.50114 | -75.74617 | 34023 ft | 472 kts | 200° |
| 2026-05-05 18:47 | 37.43801 | -75.76829 | 34023 ft | 471 kts | 200° |
| 2026-05-05 18:47 | 37.37497 | -75.79029 | 34015 ft | 471 kts | 200° |
| 2026-05-05 18:48 | 37.31180 | -75.81228 | 34008 ft | 472 kts | 200° |
| 2026-05-05 18:48 | 37.24829 | -75.83437 | 34016 ft | 473 kts | 200° |
| 2026-05-05 18:49 | 37.18483 | -75.85638 | 34011 ft | 473 kts | 200° |
| 2026-05-05 18:49 | 37.12157 | -75.87955 | 34015 ft | 470 kts | 204° |